Time;durP1;ratioP1;P1;durP2;ratioP2;P2;SDS_P1;SDS_P2;PMS_P1;PMS_P2;Temp;Humidity;BMP_temperature;BMP_pressure;BME280_temperature;BME280_humidity;BME280_pressure;Samples;Min_cycle;Max_cycle;Signal;HPM_P1;HPM_P2
2022/01/26 00:06:28;;;;;;;72.93;29.92;;;4.70;96.80;;;;;;4983078;28;20038;-58
2022/01/26 00:08:55;;;;;;;70.43;30.88;;;4.70;96.80;;;;;;4983143;28;21565;-59
2022/01/26 00:11:23;;;;;;;76.40;31.10;;;4.60;96.80;;;;;;4983197;28;20054;-59
2022/01/26 00:13:50;;;;;;;76.97;31.75;;;4.70;96.80;;;;;;4983077;28;20505;-59
2022/01/26 00:16:25;;;;;;;70.75;30.33;;;4.60;96.80;;;;;;4983232;28;20047;-59
2022/01/26 00:18:55;;;;;;;70.50;29.70;;;4.60;96.90;;;;;;4982896;28;20556;-58
2022/01/26 00:21:30;;;;;;;79.70;32.75;;;4.60;96.90;;;;;;4983113;28;20058;-59
2022/01/26 00:29:47;;;;;;;66.88;28.67;;;4.50;97.10;;;;;;4965931;28;20184;-59
2022/01/26 00:40:33;;;;;;;74.88;32.20;;;4.60;97.10;;;;;;4981791;28;20050;-59
2022/01/26 00:43:10;;;;;;;77.00;32.97;;;4.60;97.10;;;;;;4982552;28;22040;-59
2022/01/26 00:45:37;;;;;;;73.53;31.27;;;4.50;97.10;;;;;;4982191;28;20046;-58
2022/01/26 00:48:08;;;;;;;80.30;32.17;;;4.50;97.10;;;;;;4983011;28;20056;-58
2022/01/26 00:50:36;;;;;;;69.90;30.77;;;4.50;97.10;;;;;;4981845;28;20081;-58
2022/01/26 00:53:04;;;;;;;72.43;29.67;;;4.50;97.10;;;;;;4982833;28;20050;-58
2022/01/26 00:55:31;;;;;;;67.07;29.38;;;4.50;97.10;;;;;;4982255;28;20050;-59
2022/01/26 00:57:59;;;;;;;64.35;29.38;;;4.50;97.00;;;;;;4982397;28;20061;-58
2022/01/26 01:00:29;;;;;;;70.40;30.20;;;4.60;97.00;;;;;;4981771;28;20109;-59
2022/01/26 01:02:57;;;;;;;69.57;30.55;;;4.60;97.00;;;;;;4981655;28;20050;-58
2022/01/26 01:05:29;;;;;;;73.78;29.85;;;4.60;97.00;;;;;;4982482;28;20376;-58
2022/01/26 01:08:02;;;;;;;67.60;29.52;;;4.60;96.90;;;;;;4981800;28;20056;-59
2022/01/26 01:10:29;;;;;;;76.28;31.02;;;4.60;96.80;;;;;;4981864;28;20054;-58
2022/01/26 01:12:58;;;;;;;74.47;31.00;;;4.60;96.80;;;;;;4981789;28;20500;-59
2022/01/26 01:15:27;;;;;;;71.28;29.88;;;4.60;96.80;;;;;;4982278;28;20057;-58
2022/01/26 01:18:04;;;;;;;65.82;28.83;;;4.60;96.70;;;;;;4981400;28;20061;-59
2022/01/26 01:20:49;;;;;;;64.63;27.92;;;4.60;96.80;;;;;;4978623;28;20169;-58
2022/01/26 01:23:41;;;;;;;67.53;29.45;;;4.60;96.80;;;;;;4981557;28;20220;-58
2022/01/26 01:29:19;;;;;;;66.85;29.38;;;4.60;96.70;;;;;;4920250;28;20166;-58
2022/01/26 01:31:51;;;;;;;69.53;28.63;;;4.60;96.60;;;;;;4919569;28;21254;-58
2022/01/26 01:34:20;;;;;;;65.28;28.42;;;4.60;96.60;;;;;;4953810;28;20058;-58
2022/01/26 01:36:50;;;;;;;70.03;28.92;;;4.60;96.60;;;;;;4981209;28;20090;-58
2022/01/26 01:39:18;;;;;;;68.03;29.40;;;4.60;96.70;;;;;;4981718;28;20045;-59
2022/01/26 01:41:47;;;;;;;60.22;27.48;;;4.60;96.60;;;;;;4978957;28;20200;-58
2022/01/26 01:44:15;;;;;;;63.55;28.27;;;4.60;96.70;;;;;;4981385;28;20096;-61
2022/01/26 01:46:43;;;;;;;69.47;28.35;;;4.60;96.70;;;;;;4980623;28;20226;-59
2022/01/26 01:49:13;;;;;;;71.43;28.83;;;4.60;96.70;;;;;;4978786;28;20095;-59
2022/01/26 01:51:45;;;;;;;68.75;28.05;;;4.60;96.70;;;;;;4981050;28;20066;-59
2022/01/26 01:54:15;;;;;;;65.75;28.73;;;4.60;96.60;;;;;;4981222;28;20058;-58
2022/01/26 01:56:43;;;;;;;60.25;26.48;;;4.60;96.60;;;;;;4980751;28;20059;-58
2022/01/26 01:59:11;;;;;;;65.43;29.02;;;4.60;96.60;;;;;;4980288;28;20108;-59
2022/01/26 02:01:38;;;;;;;63.78;29.02;;;4.60;96.50;;;;;;4980712;28;20060;-59
2022/01/26 02:04:05;;;;;;;70.30;28.13;;;4.60;96.50;;;;;;4980256;28;20062;-59
2022/01/26 02:06:33;;;;;;;72.90;30.08;;;4.50;96.60;;;;;;4980549;28;20453;-58
2022/01/26 02:09:00;;;;;;;71.03;29.50;;;4.50;96.60;;;;;;4981491;28;20178;-59
2022/01/26 02:11:27;;;;;;;70.55;28.65;;;4.50;96.60;;;;;;4980716;28;20059;-59
2022/01/26 02:14:00;;;;;;;63.20;29.98;;;4.50;96.70;;;;;;4981275;28;20137;-59
2022/01/26 02:16:33;;;;;;;72.60;29.75;;;4.50;96.60;;;;;;4980078;28;20050;-58
2022/01/26 02:55:12;;;;;;;72.05;31.23;;;4.60;96.60;;;;;;5131891;27;37513;-59
2022/01/26 03:00:48;;;;;;;70.13;29.15;;;4.60;96.50;;;;;;5065349;28;39555;-59
2022/01/26 03:03:19;;;;;;;64.28;28.58;;;4.60;96.40;;;;;;5120821;27;37017;-59
2022/01/26 03:05:53;;;;;;;77.28;30.48;;;4.60;96.40;;;;;;5133048;27;35992;-59
2022/01/26 03:08:29;;;;;;;68.80;29.38;;;4.60;96.40;;;;;;5131916;27;36853;-59
2022/01/26 03:11:00;;;;;;;68.18;29.98;;;4.60;96.20;;;;;;5131744;27;38801;-59
2022/01/26 03:13:31;;;;;;;63.78;29.55;;;4.60;96.10;;;;;;5131834;27;36966;-59
2022/01/26 03:16:04;;;;;;;68.57;30.85;;;4.60;96.20;;;;;;5132302;27;36018;-59
2022/01/26 03:18:50;;;;;;;73.73;30.90;;;4.50;96.10;;;;;;5131157;27;36845;-59
2022/01/26 03:21:22;;;;;;;69.97;29.42;;;4.50;96.10;;;;;;5131635;27;37439;-59
2022/01/26 03:29:39;;;;;;;65.63;28.67;;;4.40;96.20;;;;;;5130438;27;37893;-59
2022/01/26 03:35:13;;;;;;;68.07;28.83;;;4.70;96.30;;;;;;5045585;28;37909;-58
2022/01/26 03:37:49;;;;;;;69.22;30.15;;;4.40;96.40;;;;;;5115644;27;37047;-59
2022/01/26 03:40:18;;;;;;;63.97;28.63;;;4.40;96.30;;;;;;5132213;27;37577;-59
2022/01/26 03:42:46;;;;;;;67.82;29.65;;;4.30;96.60;;;;;;5131301;27;38420;-59
2022/01/26 03:45:14;;;;;;;65.68;29.45;;;4.40;96.40;;;;;;5131917;27;35979;-59
2022/01/26 03:47:41;;;;;;;69.03;29.40;;;4.40;96.40;;;;;;5129771;27;37604;-59
2022/01/26 03:50:09;;;;;;;65.88;28.15;;;4.40;96.40;;;;;;5129034;27;36961;-59
2022/01/26 03:52:37;;;;;;;67.50;28.38;;;4.30;96.40;;;;;;5127648;27;37964;-59
2022/01/26 03:55:05;;;;;;;68.57;30.05;;;4.30;96.40;;;;;;5129188;27;35898;-59
2022/01/26 03:57:34;;;;;;;61.80;27.25;;;4.30;96.40;;;;;;5129969;27;40281;-59
2022/01/26 04:00:01;;;;;;;63.28;27.83;;;4.40;96.40;;;;;;5129947;27;37357;-59
2022/01/26 04:02:28;;;;;;;71.18;29.85;;;4.40;96.40;;;;;;5120499;27;39637;-59
2022/01/26 04:05:00;;;;;;;63.88;27.27;;;4.40;96.30;;;;;;5115247;27;36131;-59
2022/01/26 04:07:27;;;;;;;59.42;27.00;;;4.30;96.20;;;;;;5114039;27;36127;-59
2022/01/26 04:10:02;;;;;;;66.65;30.10;;;4.30;96.10;;;;;;5115592;27;36946;-59
2022/01/26 04:12:30;;;;;;;58.03;25.85;;;4.30;96.10;;;;;;5115109;27;38513;-58
2022/01/26 04:15:07;;;;;;;63.47;27.95;;;4.30;96.10;;;;;;5115381;27;37337;-58
2022/01/26 04:17:34;;;;;;;62.38;29.25;;;4.30;96.20;;;;;;5114369;27;37136;-58
2022/01/26 04:20:01;;;;;;;56.22;25.92;;;4.20;96.20;;;;;;5115229;27;35445;-58
2022/01/26 04:22:35;;;;;;;60.72;27.52;;;4.20;96.20;;;;;;5114671;27;37374;-58
2022/01/26 04:25:05;;;;;;;60.65;25.95;;;4.20;96.20;;;;;;5112398;27;37384;-58
2022/01/26 04:27:37;;;;;;;57.00;25.70;;;4.20;96.10;;;;;;5114009;27;39706;-58
2022/01/26 04:30:07;;;;;;;62.50;27.35;;;4.20;96.10;;;;;;5115901;27;36880;-58
2022/01/26 04:32:34;;;;;;;57.22;24.90;;;4.20;96.20;;;;;;5114355;27;38671;-58
2022/01/26 04:35:02;;;;;;;61.67;26.73;;;4.20;96.20;;;;;;5115404;27;37382;-58
2022/01/26 04:37:40;;;;;;;60.78;27.10;;;4.10;96.10;;;;;;5115341;27;37091;-58
2022/01/26 04:40:12;;;;;;;60.42;25.42;;;4.10;96.10;;;;;;5115240;27;35632;-58
2022/01/26 04:42:48;;;;;;;61.38;25.70;;;4.10;96.20;;;;;;5114289;27;37522;-58
2022/01/26 04:45:18;;;;;;;65.05;29.45;;;4.10;96.20;;;;;;5115395;27;37121;-58
2022/01/26 04:47:45;;;;;;;57.10;26.52;;;4.00;96.20;;;;;;5112575;27;39943;-58
2022/01/26 04:50:13;;;;;;;59.67;26.25;;;4.00;96.20;;;;;;5115431;27;36811;-58
2022/01/26 04:52:41;;;;;;;58.35;25.40;;;4.00;96.30;;;;;;5114957;27;37493;-58
2022/01/26 04:55:09;;;;;;;56.28;25.33;;;4.00;96.30;;;;;;5113931;27;36821;-58
2022/01/26 04:57:37;;;;;;;54.53;25.00;;;4.00;96.30;;;;;;5115035;27;36049;-58
2022/01/26 05:00:05;;;;;;;56.33;25.13;;;4.00;96.30;;;;;;5115327;27;37237;-58
2022/01/26 05:02:34;;;;;;;57.45;26.20;;;4.10;96.20;;;;;;5113735;27;39981;-58
2022/01/26 05:05:01;;;;;;;58.10;25.00;;;4.00;96.20;;;;;;5114985;27;36940;-58
2022/01/26 05:07:29;;;;;;;59.97;25.67;;;4.00;96.20;;;;;;5114535;27;37896;-58
2022/01/26 05:09:56;;;;;;;57.95;23.98;;;4.00;96.00;;;;;;5113729;27;36741;-58
2022/01/26 05:12:24;;;;;;;57.80;24.50;;;4.10;96.00;;;;;;5113478;27;37032;-59
2022/01/26 05:14:51;;;;;;;54.40;24.45;;;4.10;96.00;;;;;;5112303;27;37216;-58
2022/01/26 05:17:20;;;;;;;56.40;24.52;;;4.10;95.90;;;;;;5111653;27;37097;-58
2022/01/26 05:19:54;;;;;;;59.55;24.30;;;4.10;95.70;;;;;;5112958;27;38716;-58
2022/01/26 05:22:22;;;;;;;55.65;24.58;;;4.10;95.70;;;;;;5111249;27;36416;-58
2022/01/26 05:24:49;;;;;;;55.80;23.58;;;4.10;95.70;;;;;;5112828;27;37207;-58
2022/01/26 05:27:17;;;;;;;58.60;26.50;;;4.10;95.90;;;;;;5113450;27;37121;-58
2022/01/26 05:29:45;;;;;;;53.08;24.58;;;4.10;95.60;;;;;;5113860;27;36564;-58
2022/01/26 05:32:12;;;;;;;56.17;22.85;;;4.10;95.60;;;;;;5113913;27;36242;-58
2022/01/26 05:34:40;;;;;;;57.17;24.83;;;4.00;95.60;;;;;;5113837;27;37536;-58
2022/01/26 05:37:09;;;;;;;55.67;24.02;;;4.00;95.60;;;;;;5114556;27;38326;-58
2022/01/26 05:39:38;;;;;;;55.30;24.17;;;4.00;95.60;;;;;;5113810;27;36255;-58
2022/01/26 05:42:07;;;;;;;56.00;23.35;;;4.00;95.60;;;;;;5114175;27;37730;-58
2022/01/26 05:44:35;;;;;;;56.67;24.60;;;4.00;95.60;;;;;;5114457;27;37073;-58
2022/01/26 05:47:03;;;;;;;56.05;24.10;;;4.00;95.60;;;;;;5111408;27;37479;-58
2022/01/26 05:49:31;;;;;;;54.92;24.40;;;4.00;95.70;;;;;;5113815;27;36486;-58
2022/01/26 05:51:58;;;;;;;57.78;25.13;;;3.90;95.90;;;;;;5111560;27;38754;-58
2022/01/26 05:54:27;;;;;;;57.80;24.67;;;3.90;95.60;;;;;;5114785;27;37691;-58
2022/01/26 05:56:54;;;;;;;55.15;24.25;;;4.00;95.80;;;;;;5112689;27;38153;-57
2022/01/26 05:59:22;;;;;;;55.40;23.00;;;3.90;95.70;;;;;;5114052;27;38761;-57
2022/01/26 06:01:50;;;;;;;52.55;23.15;;;3.90;95.80;;;;;;5113111;27;37336;-58
2022/01/26 06:04:18;;;;;;;60.90;26.02;;;4.00;95.90;;;;;;5112719;27;37631;-58
2022/01/26 06:06:45;;;;;;;61.13;25.70;;;4.00;95.70;;;;;;5112228;27;36995;-57
2022/01/26 06:09:13;;;;;;;52.22;23.33;;;3.90;95.70;;;;;;5112828;27;37615;-58
2022/01/26 06:11:42;;;;;;;58.60;23.70;;;4.00;95.70;;;;;;5112011;27;39025;-57
2022/01/26 06:14:09;;;;;;;51.97;24.13;;;4.00;95.70;;;;;;5113317;27;37015;-57
2022/01/26 06:16:36;;;;;;;60.28;24.90;;;4.00;95.70;;;;;;5113382;27;38300;-57
2022/01/26 06:19:04;;;;;;;52.63;23.67;;;4.00;95.50;;;;;;5113824;27;39163;-57
2022/01/26 06:21:31;;;;;;;58.83;24.20;;;4.10;95.50;;;;;;5113742;27;37322;-58
2022/01/26 06:24:00;;;;;;;53.03;24.75;;;4.10;95.50;;;;;;5113335;27;38241;-58
2022/01/26 06:26:27;;;;;;;53.05;23.55;;;4.10;95.40;;;;;;5112779;27;36160;-57
2022/01/26 06:28:56;;;;;;;62.30;25.63;;;4.10;95.50;;;;;;5113286;27;37015;-58
2022/01/26 06:31:26;;;;;;;56.85;25.63;;;4.20;95.40;;;;;;5112286;27;37061;-58
2022/01/26 06:33:54;;;;;;;57.78;24.75;;;4.20;95.50;;;;;;5112468;27;37124;-57
2022/01/26 06:36:22;;;;;;;56.78;24.95;;;4.20;95.20;;;;;;5113412;27;38234;-57
2022/01/26 06:38:49;;;;;;;53.40;23.30;;;4.20;95.20;;;;;;5114715;27;35604;-57
2022/01/26 06:41:23;;;;;;;60.83;25.33;;;4.20;95.40;;;;;;5112471;27;38486;-57
2022/01/26 06:43:57;;;;;;;55.20;24.20;;;4.30;95.10;;;;;;5112552;27;37537;-57
2022/01/26 06:46:33;;;;;;;54.03;24.58;;;4.20;95.00;;;;;;5112192;27;36953;-57
2022/01/26 06:49:28;;;;;;;57.72;23.63;;;4.20;95.20;;;;;;5112625;27;37441;-58
2022/01/26 06:51:51;;;;;;;51.17;24.67;;;4.30;95.00;;;;;;5110383;27;37561;-57
2022/01/26 06:54:19;;;;;;;57.20;24.77;;;4.30;94.90;;;;;;5113767;27;36473;-57
2022/01/26 06:56:47;;;;;;;58.30;25.92;;;4.30;94.90;;;;;;5113508;27;37049;-58
2022/01/26 06:59:15;;;;;;;55.30;25.85;;;4.30;94.90;;;;;;5117431;27;37580;-57
2022/01/26 07:01:44;;;;;;;61.72;26.75;;;4.30;94.80;;;;;;5118000;27;36256;-57
2022/01/26 07:04:11;;;;;;;62.40;27.77;;;4.40;94.80;;;;;;5117088;27;38274;-58
2022/01/26 07:06:38;;;;;;;59.25;25.80;;;4.40;94.80;;;;;;5115388;27;36811;-58
2022/01/26 07:09:06;;;;;;;60.50;26.30;;;4.30;94.80;;;;;;5117144;27;37805;-58
2022/01/26 07:11:34;;;;;;;60.15;27.88;;;4.40;94.90;;;;;;5116337;27;38364;-57
2022/01/26 07:14:03;;;;;;;61.42;28.38;;;4.30;94.80;;;;;;5117961;27;37248;-57
2022/01/26 07:22:01;;;;;;;58.58;27.08;;;4.30;95.00;;;;;;5117207;27;39425;-58
2022/01/26 07:24:29;;;;;;;66.43;28.92;;;4.30;95.10;;;;;;5117047;27;36057;-57
2022/01/26 07:26:56;;;;;;;64.25;27.63;;;4.30;95.20;;;;;;5117875;27;37878;-57
2022/01/26 07:29:24;;;;;;;66.18;28.95;;;4.30;95.10;;;;;;5116647;27;37255;-57
2022/01/26 07:31:52;;;;;;;62.28;27.95;;;4.30;95.10;;;;;;5116622;27;36496;-58
2022/01/26 07:34:23;;;;;;;56.55;28.00;;;4.30;95.10;;;;;;5116728;27;36173;-57
2022/01/26 07:36:53;;;;;;;56.30;26.45;;;4.30;95.20;;;;;;5114630;27;37314;-58
2022/01/26 07:39:30;;;;;;;54.78;26.70;;;4.30;95.20;;;;;;5120898;27;36628;-58
2022/01/26 07:41:59;;;;;;;62.40;28.25;;;4.40;95.20;;;;;;5119902;27;38639;-57
2022/01/26 07:44:27;;;;;;;59.15;27.52;;;4.40;95.20;;;;;;5120348;27;37338;-58
2022/01/26 07:46:54;;;;;;;63.65;28.33;;;4.80;95.30;;;;;;5118727;27;35468;-58
2022/01/26 07:49:23;;;;;;;60.92;27.48;;;4.40;95.20;;;;;;5119042;27;35806;-58
2022/01/26 07:51:51;;;;;;;61.35;27.95;;;4.40;95.30;;;;;;5118064;27;37499;-58
2022/01/26 07:54:20;;;;;;;69.32;30.48;;;4.40;95.30;;;;;;5119945;27;37314;-58
2022/01/26 07:56:48;;;;;;;64.88;29.38;;;4.40;95.30;;;;;;5118859;27;36847;-58
2022/01/26 07:59:15;;;;;;;63.10;27.75;;;4.40;95.30;;;;;;5119715;27;36626;-57
2022/01/26 08:01:43;;;;;;;62.25;29.05;;;4.40;95.40;;;;;;5120149;27;39585;-57
2022/01/26 08:04:10;;;;;;;62.38;29.52;;;4.40;95.40;;;;;;5119185;27;36440;-58
2022/01/26 08:06:40;;;;;;;69.32;31.00;;;4.50;95.40;;;;;;5119972;27;38995;-58
2022/01/26 08:09:07;;;;;;;65.25;31.25;;;4.50;95.40;;;;;;5120029;27;39656;-57
2022/01/26 08:11:35;;;;;;;65.82;32.20;;;4.50;95.40;;;;;;5118925;27;38527;-57
2022/01/26 08:14:02;;;;;;;66.53;32.75;;;4.50;95.50;;;;;;5118818;27;37820;-58
2022/01/26 08:16:29;;;;;;;64.10;30.48;;;4.50;95.50;;;;;;5120402;27;36628;-58
2022/01/26 08:18:57;;;;;;;73.03;33.83;;;4.50;95.60;;;;;;5122130;27;36874;-57
2022/01/26 08:21:24;;;;;;;69.38;31.23;;;4.50;95.60;;;;;;5118625;27;37289;-57
2022/01/26 08:24:01;;;;;;;63.55;30.20;;;4.50;95.60;;;;;;5121030;27;37259;-57
2022/01/26 08:26:38;;;;;;;69.20;32.30;;;4.60;95.60;;;;;;5117933;27;38227;-57
2022/01/26 08:29:11;;;;;;;67.97;33.15;;;4.60;95.70;;;;;;5119866;27;36810;-58
2022/01/26 08:31:38;;;;;;;71.70;33.45;;;4.60;95.70;;;;;;5119326;27;38532;-58
2022/01/26 08:34:06;;;;;;;79.47;35.50;;;4.70;95.80;;;;;;5117610;27;38250;-58
2022/01/26 08:36:33;;;;;;;68.18;33.28;;;4.70;95.80;;;;;;5118701;27;35892;-58
2022/01/26 08:39:02;;;;;;;71.43;33.45;;;4.70;95.80;;;;;;5118649;27;37755;-57
2022/01/26 08:41:30;;;;;;;74.22;32.05;;;4.70;95.70;;;;;;5116450;27;37031;-58
2022/01/26 08:43:57;;;;;;;67.18;32.10;;;4.70;95.60;;;;;;5119069;27;38278;-58
2022/01/26 08:46:25;;;;;;;73.25;33.78;;;4.80;95.70;;;;;;5118916;27;37193;-57
2022/01/26 08:48:52;;;;;;;70.82;32.47;;;4.80;95.70;;;;;;5117935;27;36895;-57
2022/01/26 08:51:20;;;;;;;70.55;33.35;;;4.80;95.70;;;;;;5117368;27;37582;-57
2022/01/26 08:53:48;;;;;;;65.82;32.92;;;4.80;95.70;;;;;;5116852;27;37798;-58
2022/01/26 08:56:17;;;;;;;73.78;33.85;;;4.80;95.70;;;;;;5116437;27;36834;-57
2022/01/26 08:58:44;;;;;;;72.78;33.22;;;4.80;95.80;;;;;;5118097;27;35443;-57
2022/01/26 09:01:11;;;;;;;71.65;34.00;;;4.90;95.80;;;;;;5117538;27;37991;-57
2022/01/26 09:03:39;;;;;;;69.90;31.83;;;4.90;95.80;;;;;;5117574;27;38551;-58
2022/01/26 09:06:07;;;;;;;60.88;30.55;;;4.90;95.70;;;;;;5117594;27;36090;-58
2022/01/26 09:08:34;;;;;;;71.60;33.35;;;4.90;95.80;;;;;;5118688;27;36966;-57
2022/01/26 09:11:03;;;;;;;70.05;34.08;;;4.90;95.80;;;;;;5117660;27;38809;-57
2022/01/26 09:13:34;;;;;;;67.30;33.70;;;4.90;95.90;;;;;;5118769;27;37033;-57
2022/01/26 09:16:03;;;;;;;68.90;32.35;;;4.90;95.80;;;;;;5117207;27;37045;-57
2022/01/26 09:18:38;;;;;;;59.10;31.77;;;4.90;95.80;;;;;;5119117;27;37054;-57
2022/01/26 09:21:06;;;;;;;62.35;30.80;;;5.00;95.80;;;;;;5118066;27;39907;-57
2022/01/26 09:23:34;;;;;;;63.13;31.83;;;5.00;95.70;;;;;;5116526;27;38161;-57
2022/01/26 09:26:01;;;;;;;62.58;31.65;;;5.00;95.60;;;;;;5118828;27;38739;-58
2022/01/26 09:28:28;;;;;;;63.05;30.55;;;5.00;95.60;;;;;;5118148;27;37555;-57
2022/01/26 09:30:57;;;;;;;61.20;31.48;;;5.10;95.50;;;;;;5117564;27;37644;-57
2022/01/26 09:33:25;;;;;;;62.22;29.65;;;5.10;95.50;;;;;;5118908;27;37784;-57
2022/01/26 09:35:52;;;;;;;61.65;30.98;;;5.10;95.60;;;;;;5117813;27;37268;-58
2022/01/26 09:38:20;;;;;;;77.78;32.40;;;5.20;95.40;;;;;;5118091;27;35640;-57
2022/01/26 09:40:48;;;;;;;61.03;31.00;;;5.20;95.30;;;;;;5119295;27;38599;-58
2022/01/26 09:43:16;;;;;;;58.22;30.67;;;5.20;95.10;;;;;;5115327;27;38195;-57
2022/01/26 09:45:43;;;;;;;67.07;31.92;;;5.20;95.10;;;;;;5116827;27;36827;-57
2022/01/26 09:48:13;;;;;;;63.78;32.00;;;5.20;95.10;;;;;;5116826;27;38303;-58
2022/01/26 09:50:43;;;;;;;62.08;31.23;;;5.20;95.00;;;;;;5117044;27;38075;-57
2022/01/26 09:53:12;;;;;;;69.65;31.55;;;5.30;95.00;;;;;;5119605;27;37264;-57
2022/01/26 09:55:43;;;;;;;65.18;31.23;;;5.20;95.00;;;;;;5118611;27;35992;-57
2022/01/26 09:58:11;;;;;;;65.00;31.15;;;5.30;94.90;;;;;;5118607;27;37564;-57
2022/01/26 10:00:38;;;;;;;68.20;30.73;;;5.30;94.90;;;;;;5118187;27;37752;-57
2022/01/26 10:03:06;;;;;;;64.20;31.35;;;5.30;94.80;;;;;;5118105;27;37814;-58
2022/01/26 10:05:44;;;;;;;63.75;30.70;;;5.30;94.80;;;;;;5118489;27;37063;-58
2022/01/26 10:08:24;;;;;;;66.95;29.90;;;5.30;94.80;;;;;;5116631;27;35875;-58
2022/01/26 10:17:09;;;;;;;60.63;29.92;;;5.30;94.80;;;;;;5118735;27;38126;-58
2022/01/26 10:19:26;;;;;;;57.45;28.33;;;5.30;94.80;;;;;;5117532;27;36132;-58
2022/01/26 10:21:55;;;;;;;57.72;28.60;;;5.40;94.80;;;;;;5115830;27;37586;-57
2022/01/26 10:24:28;;;;;;;60.90;29.20;;;5.40;94.80;;;;;;5117637;27;37066;-58
2022/01/26 10:27:00;;;;;;;56.40;26.80;;;5.40;94.80;;;;;;5115589;27;38389;-57
2022/01/26 10:29:29;;;;;;;55.45;26.75;;;5.40;94.70;;;;;;5117845;27;37421;-58
2022/01/26 10:31:58;;;;;;;57.22;26.85;;;5.40;94.70;;;;;;5118387;27;37235;-57
2022/01/26 10:34:25;;;;;;;61.30;26.30;;;5.40;94.60;;;;;;5117782;27;39802;-57
2022/01/26 10:36:58;;;;;;;56.80;25.45;;;5.40;94.70;;;;;;5118072;27;36083;-57
2022/01/26 10:39:29;;;;;;;51.40;26.25;;;5.40;94.70;;;;;;5118079;27;37621;-57
2022/01/26 10:42:02;;;;;;;57.08;26.35;;;5.40;94.70;;;;;;5117751;27;38372;-57
2022/01/26 10:44:32;;;;;;;54.67;26.73;;;5.50;94.70;;;;;;5117153;27;36141;-57
2022/01/26 10:47:03;;;;;;;53.75;25.85;;;5.50;94.60;;;;;;5115453;27;37375;-57
2022/01/26 10:49:55;;;;;;;49.45;24.63;;;5.50;94.60;;;;;;5117110;27;35688;-57
2022/01/26 10:52:32;;;;;;;52.58;26.05;;;5.50;94.60;;;;;;5116782;27;36254;-57
2022/01/26 10:55:00;;;;;;;51.35;25.35;;;5.60;94.60;;;;;;5117966;27;39519;-57
2022/01/26 10:57:28;;;;;;;55.15;24.70;;;5.50;94.60;;;;;;5116263;27;37328;-57
2022/01/26 10:59:56;;;;;;;55.40;25.25;;;5.60;94.70;;;;;;5116553;27;36711;-57
2022/01/26 11:02:27;;;;;;;52.65;25.55;;;5.60;94.80;;;;;;5114655;27;37528;-57
2022/01/26 11:04:54;;;;;;;56.22;25.55;;;5.60;94.80;;;;;;5115717;27;35099;-57
2022/01/26 11:07:33;;;;;;;52.78;24.45;;;5.60;94.70;;;;;;5116926;27;37734;-56
2022/01/26 11:10:03;;;;;;;53.92;25.92;;;5.60;94.80;;;;;;5117510;27;37617;-57
2022/01/26 11:12:32;;;;;;;52.95;24.60;;;5.60;94.90;;;;;;5116553;27;37230;-57
2022/01/26 11:15:05;;;;;;;55.10;25.52;;;5.50;95.00;;;;;;5122614;27;37181;-57
2022/01/26 11:17:35;;;;;;;;;;;5.50;95.10;;;;;;5121684;27;38095;-57
2022/01/26 11:20:14;;;;;;;57.47;25.00;;;5.60;95.60;;;;;;5118620;27;37868;-56
2022/01/26 11:22:51;;;;;;;47.00;22.90;;;5.50;95.30;;;;;;5119618;27;36266;-57
2022/01/26 11:25:19;;;;;;;53.00;24.48;;;5.50;95.50;;;;;;5120692;27;37511;-57
2022/01/26 11:27:46;;;;;;;55.30;27.10;;;5.60;95.60;;;;;;5119203;27;37212;-57
2022/01/26 11:30:21;;;;;;;52.92;25.52;;;5.60;95.70;;;;;;5120418;27;37198;-57
2022/01/26 11:32:57;;;;;;;56.53;25.20;;;5.50;95.80;;;;;;5119541;27;37677;-57
2022/01/26 11:35:27;;;;;;;59.53;25.77;;;5.60;96.00;;;;;;5119867;27;36809;-57
2022/01/26 11:38:11;;;;;;;54.67;26.05;;;5.60;96.10;;;;;;5119791;27;38709;-57
2022/01/26 11:46:32;;;;;;;;;;;5.80;96.10;;;;;;5097232;27;37952;-57
2022/01/26 11:49:01;;;;;;;55.22;26.50;;;5.80;96.20;;;;;;5116705;27;37826;-57
2022/01/26 11:51:43;;;;;;;49.83;24.42;;;5.80;95.90;;;;;;5118534;27;34985;-57
2022/01/26 11:54:16;;;;;;;52.33;26.20;;;5.80;95.90;;;;;;5116524;27;37634;-57
2022/01/26 11:56:56;;;;;;;53.92;25.30;;;5.80;95.90;;;;;;5117650;27;37849;-57
2022/01/26 11:59:25;;;;;;;53.60;26.13;;;5.80;95.90;;;;;;5120709;27;38250;-57
2022/01/26 12:01:59;;;;;;;60.50;27.88;;;5.70;95.90;;;;;;5117894;27;37671;-57
2022/01/26 12:04:26;;;;;;;55.63;26.58;;;5.80;96.00;;;;;;5120520;27;37574;-57
2022/01/26 12:07:00;;;;;;;57.60;27.08;;;5.80;96.20;;;;;;5120198;27;37823;-57
2022/01/26 12:09:29;;;;;;;60.28;28.55;;;5.80;96.10;;;;;;5119487;27;37707;-57
2022/01/26 12:11:56;;;;;;;54.78;26.90;;;5.80;96.20;;;;;;5120532;27;35489;-57
2022/01/26 12:14:24;;;;;;;57.67;27.75;;;5.80;96.10;;;;;;5119957;27;39612;-57
2022/01/26 12:16:55;;;;;;;60.22;28.48;;;5.90;96.10;;;;;;5120697;27;37835;-57
2022/01/26 12:19:31;;;;;;;59.50;27.60;;;5.90;96.10;;;;;;5120656;27;37143;-57
2022/01/26 12:35:57;;;;;;;49.53;25.05;;;5.90;96.10;;;;;;5120084;27;38140;-57
2022/01/26 12:38:33;;;;;;;59.92;27.13;;;5.90;96.10;;;;;;5120029;27;36985;-57
2022/01/26 12:41:19;;;;;;;55.10;25.55;;;5.90;96.10;;;;;;5121368;27;36166;-57
2022/01/26 12:43:49;;;;;;;59.88;26.35;;;5.90;96.00;;;;;;5120090;27;36862;-57
2022/01/26 12:46:19;;;;;;;57.95;26.48;;;5.90;96.00;;;;;;5118055;27;38403;-57
2022/01/26 12:48:52;;;;;;;51.63;26.05;;;5.90;96.00;;;;;;5117464;27;37116;-56
2022/01/26 12:51:19;;;;;;;53.67;25.77;;;5.90;96.00;;;;;;5121233;27;37242;-57
2022/01/26 12:53:52;;;;;;;67.35;26.13;;;5.90;96.00;;;;;;5119623;27;38007;-57
2022/01/26 12:56:24;;;;;;;56.20;25.70;;;5.90;96.10;;;;;;5121135;27;39305;-57
2022/01/26 12:59:00;;;;;;;62.92;28.30;;;5.90;96.10;;;;;;5118756;27;37056;-57
2022/01/26 13:01:27;;;;;;;49.45;24.08;;;5.90;96.20;;;;;;5118459;27;38900;-57
2022/01/26 13:03:58;;;;;;;60.22;24.63;;;6.00;96.20;;;;;;5119036;27;37267;-57
2022/01/26 13:06:28;;;;;;;48.05;25.35;;;6.00;96.10;;;;;;5118680;27;37596;-57
2022/01/26 13:08:57;;;;;;;51.97;24.20;;;6.10;96.00;;;;;;5120467;27;37963;-57
2022/01/26 13:11:28;;;;;;;50.38;24.60;;;6.10;96.00;;;;;;5120831;27;37096;-57
2022/01/26 13:14:15;;;;;;;49.65;24.17;;;6.10;95.90;;;;;;5119774;27;37847;-57
2022/01/26 13:16:56;;;;;;;48.90;23.35;;;6.20;95.90;;;;;;5119679;27;37401;-57
2022/01/26 13:19:41;;;;;;;48.67;22.73;;;6.20;96.00;;;;;;5119546;27;37071;-57
2022/01/26 13:25:15;;;;;;;;;;;6.30;95.80;;;;;;5095578;27;36455;-57
2022/01/26 13:28:11;;;;;;;48.90;22.67;;;6.30;96.10;;;;;;5121994;27;37629;-57
2022/01/26 13:31:09;;;;;;;52.47;23.75;;;6.30;95.70;;;;;;5121518;27;37467;-57
2022/01/26 13:34:06;;;;;;;52.35;24.60;;;6.30;95.60;;;;;;5119729;27;36044;-57
2022/01/26 13:42:57;;;;;;;46.40;23.25;;;6.30;95.40;;;;;;5118201;27;38534;-57
2022/01/26 13:48:31;;;;;;;53.92;24.80;;;6.30;95.40;;;;;;5121208;27;36838;-57
2022/01/26 13:51:07;;;;;;;47.40;21.92;;;6.40;95.50;;;;;;5120239;27;36975;-57
2022/01/26 13:53:46;;;;;;;45.75;22.63;;;6.40;95.40;;;;;;5119569;27;38593;-57
2022/01/26 13:56:18;;;;;;;41.97;21.05;;;6.40;95.50;;;;;;5119128;27;39904;-57
2022/01/26 13:58:58;;;;;;;47.47;23.25;;;6.40;95.30;;;;;;5119293;27;37592;-57
2022/01/26 14:01:27;;;;;;;51.45;23.27;;;6.40;95.40;;;;;;5120099;27;39149;-57
2022/01/26 14:04:01;;;;;;;44.08;21.40;;;6.50;95.50;;;;;;5116466;27;36322;-57
2022/01/26 14:06:28;;;;;;;45.35;22.63;;;6.50;95.40;;;;;;5117348;27;37791;-57
2022/01/26 14:08:56;;;;;;;49.47;22.60;;;6.50;95.30;;;;;;5119063;27;38220;-57
2022/01/26 14:11:23;;;;;;;46.28;22.63;;;6.50;95.30;;;;;;5118453;27;38987;-57
2022/01/26 14:13:55;;;;;;;45.58;20.85;;;6.50;95.20;;;;;;5119780;27;37893;-57
2022/01/26 14:16:24;;;;;;;49.92;22.52;;;6.50;95.20;;;;;;5119599;27;37210;-57
2022/01/26 14:19:12;;;;;;;46.90;20.42;;;6.50;95.10;;;;;;5117527;27;35488;-57
2022/01/26 14:24:29;;;;;;;;;;;6.50;95.30;;;;;;5089928;27;36196;-57
2022/01/26 14:26:59;;;;;;;41.17;19.38;;;6.50;95.30;;;;;;5119474;27;35538;-56
2022/01/26 14:29:36;;;;;;;45.75;22.15;;;6.50;95.30;;;;;;5119730;27;36113;-57
2022/01/26 14:52:03;;;;;;;40.10;19.48;;;6.50;95.10;;;;;;5117983;27;39986;-57
2022/01/26 15:00:22;;;;;;;40.30;19.25;;;6.40;95.30;;;;;;5115485;27;37936;-57
2022/01/26 15:34:08;;;;;;;46.00;21.00;;;6.50;95.80;;;;;;5157198;27;37761;-58
2022/01/26 15:45:04;;;;;;;44.60;21.80;;;6.50;95.90;;;;;;5157414;27;38082;-57
2022/01/26 15:50:42;;;;;;;49.03;21.65;;;6.50;95.90;;;;;;5104894;27;38829;-57
2022/01/26 15:53:15;;;;;;;49.08;23.23;;;6.40;95.90;;;;;;5164947;27;36568;-58
2022/01/26 15:58:43;;;;;;;43.90;22.13;;;6.50;95.90;;;;;;5175623;27;39500;-57
2022/01/26 16:06:57;;;;;;;51.00;22.77;;;6.50;95.90;;;;;;5174915;27;38373;-57
2022/01/26 17:02:38;;;;;;;36.28;17.38;;;6.50;96.40;;;;;;5161823;27;38193;-57